sensor_id;sensor_type;location;lat;lon;timestamp;P1;durP1;ratioP1;P2;durP2;ratioP2
21959;SDS011;11144;43.030;25.108;2023-08-31T00:01:27;7.70;;;4.55;;
21959;SDS011;11144;43.030;25.108;2023-08-31T00:03:01;6.35;;;4.25;;
21959;SDS011;11144;43.030;25.108;2023-08-31T00:04:34;6.88;;;4.18;;
21959;SDS011;11144;43.030;25.108;2023-08-31T00:06:07;7.20;;;4.20;;
21959;SDS011;11144;43.030;25.108;2023-08-31T00:07:41;5.45;;;3.85;;
21959;SDS011;11144;43.030;25.108;2023-08-31T00:09:13;5.65;;;3.92;;
21959;SDS011;11144;43.030;25.108;2023-08-31T00:10:54;6.80;;;4.10;;
21959;SDS011;11144;43.030;25.108;2023-08-31T00:12:28;7.40;;;4.22;;
21959;SDS011;11144;43.030;25.108;2023-08-31T00:14:00;5.70;;;3.85;;
21959;SDS011;11144;43.030;25.108;2023-08-31T00:15:33;6.57;;;3.90;;
21959;SDS011;11144;43.030;25.108;2023-08-31T00:17:07;7.10;;;4.30;;
21959;SDS011;11144;43.030;25.108;2023-08-31T00:18:40;5.53;;;3.72;;
21959;SDS011;11144;43.030;25.108;2023-08-31T00:20:13;6.43;;;4.32;;
21959;SDS011;11144;43.030;25.108;2023-08-31T00:21:46;7.93;;;4.45;;
21959;SDS011;11144;43.030;25.108;2023-08-31T00:23:20;10.02;;;4.28;;
21959;SDS011;11144;43.030;25.108;2023-08-31T00:24:54;5.88;;;3.60;;
21959;SDS011;11144;43.030;25.108;2023-08-31T00:26:27;6.28;;;4.07;;
21959;SDS011;11144;43.030;25.108;2023-08-31T00:28:03;7.03;;;4.15;;
21959;SDS011;11144;43.030;25.108;2023-08-31T00:29:36;7.20;;;4.15;;
21959;SDS011;11144;43.030;25.108;2023-08-31T00:31:11;6.72;;;3.70;;
21959;SDS011;11144;43.030;25.108;2023-08-31T00:32:43;5.82;;;4.20;;
21959;SDS011;11144;43.030;25.108;2023-08-31T00:34:19;7.05;;;4.65;;
21959;SDS011;11144;43.030;25.108;2023-08-31T00:35:51;5.60;;;4.20;;
21959;SDS011;11144;43.030;25.108;2023-08-31T00:37:25;7.40;;;4.68;;
21959;SDS011;11144;43.030;25.108;2023-08-31T00:38:57;6.18;;;4.90;;
21959;SDS011;11144;43.030;25.108;2023-08-31T00:40:30;7.30;;;4.70;;
21959;SDS011;11144;43.030;25.108;2023-08-31T00:42:08;6.38;;;4.38;;
21959;SDS011;11144;43.030;25.108;2023-08-31T00:43:42;7.13;;;4.30;;
21959;SDS011;11144;43.030;25.108;2023-08-31T00:45:16;7.40;;;4.85;;
21959;SDS011;11144;43.030;25.108;2023-08-31T00:46:49;8.02;;;4.47;;
21959;SDS011;11144;43.030;25.108;2023-08-31T00:48:22;8.63;;;5.00;;
21959;SDS011;11144;43.030;25.108;2023-08-31T00:49:55;7.85;;;4.50;;
21959;SDS011;11144;43.030;25.108;2023-08-31T00:51:28;6.07;;;4.22;;
21959;SDS011;11144;43.030;25.108;2023-08-31T00:53:01;7.22;;;4.55;;
21959;SDS011;11144;43.030;25.108;2023-08-31T00:54:36;6.47;;;4.38;;
21959;SDS011;11144;43.030;25.108;2023-08-31T00:56:08;7.57;;;4.93;;
21959;SDS011;11144;43.030;25.108;2023-08-31T00:57:43;7.30;;;5.25;;
21959;SDS011;11144;43.030;25.108;2023-08-31T00:59:16;7.18;;;4.30;;
21959;SDS011;11144;43.030;25.108;2023-08-31T01:00:51;6.68;;;4.93;;
21959;SDS011;11144;43.030;25.108;2023-08-31T01:02:32;9.95;;;4.80;;
21959;SDS011;11144;43.030;25.108;2023-08-31T01:04:22;7.57;;;4.78;;
21959;SDS011;11144;43.030;25.108;2023-08-31T01:06:02;7.60;;;4.18;;
21959;SDS011;11144;43.030;25.108;2023-08-31T01:07:47;7.80;;;4.90;;
21959;SDS011;11144;43.030;25.108;2023-08-31T01:09:27;6.72;;;4.28;;
21959;SDS011;11144;43.030;25.108;2023-08-31T01:11:11;6.97;;;5.03;;
21959;SDS011;11144;43.030;25.108;2023-08-31T01:12:52;9.52;;;4.85;;
21959;SDS011;11144;43.030;25.108;2023-08-31T01:14:41;7.80;;;4.90;;
21959;SDS011;11144;43.030;25.108;2023-08-31T01:16:16;7.75;;;4.63;;
21959;SDS011;11144;43.030;25.108;2023-08-31T01:17:52;7.25;;;4.65;;
21959;SDS011;11144;43.030;25.108;2023-08-31T01:19:30;7.03;;;4.35;;
21959;SDS011;11144;43.030;25.108;2023-08-31T01:21:23;6.90;;;4.40;;
21959;SDS011;11144;43.030;25.108;2023-08-31T01:23:01;7.75;;;4.63;;
21959;SDS011;11144;43.030;25.108;2023-08-31T01:24:37;6.63;;;4.32;;
21959;SDS011;11144;43.030;25.108;2023-08-31T01:26:11;7.07;;;3.92;;
21959;SDS011;11144;43.030;25.108;2023-08-31T01:27:43;5.65;;;4.10;;
21959;SDS011;11144;43.030;25.108;2023-08-31T01:29:19;7.38;;;4.60;;
21959;SDS011;11144;43.030;25.108;2023-08-31T01:30:52;9.02;;;4.57;;
21959;SDS011;11144;43.030;25.108;2023-08-31T19:40:38;3.33;;;2.13;;
21959;SDS011;11144;43.030;25.108;2023-08-31T19:42:13;2.03;;;1.42;;
21959;SDS011;11144;43.030;25.108;2023-08-31T19:43:45;4.97;;;2.20;;
21959;SDS011;11144;43.030;25.108;2023-08-31T19:45:18;3.00;;;1.77;;
21959;SDS011;11144;43.030;25.108;2023-08-31T19:46:52;3.30;;;1.55;;
21959;SDS011;11144;43.030;25.108;2023-08-31T19:48:29;3.88;;;1.67;;
21959;SDS011;11144;43.030;25.108;2023-08-31T19:50:03;3.97;;;2.20;;
21959;SDS011;11144;43.030;25.108;2023-08-31T19:51:37;5.10;;;1.83;;
21959;SDS011;11144;43.030;25.108;2023-08-31T19:53:11;4.20;;;1.42;;
21959;SDS011;11144;43.030;25.108;2023-08-31T19:54:44;5.78;;;1.70;;
21959;SDS011;11144;43.030;25.108;2023-08-31T19:56:19;3.15;;;1.75;;
21959;SDS011;11144;43.030;25.108;2023-08-31T19:57:51;2.50;;;1.30;;
21959;SDS011;11144;43.030;25.108;2023-08-31T19:59:24;2.22;;;0.98;;
21959;SDS011;11144;43.030;25.108;2023-08-31T20:00:58;3.20;;;1.48;;
21959;SDS011;11144;43.030;25.108;2023-08-31T20:02:31;2.25;;;1.23;;
21959;SDS011;11144;43.030;25.108;2023-08-31T20:04:03;3.70;;;1.27;;
21959;SDS011;11144;43.030;25.108;2023-08-31T20:05:37;3.47;;;1.40;;
21959;SDS011;11144;43.030;25.108;2023-08-31T20:07:10;2.70;;;1.63;;
21959;SDS011;11144;43.030;25.108;2023-08-31T20:08:44;2.30;;;1.33;;
21959;SDS011;11144;43.030;25.108;2023-08-31T20:10:18;4.78;;;1.33;;
21959;SDS011;11144;43.030;25.108;2023-08-31T20:11:55;2.10;;;1.10;;
21959;SDS011;11144;43.030;25.108;2023-08-31T20:13:27;3.53;;;1.33;;
21959;SDS011;11144;43.030;25.108;2023-08-31T20:15:00;5.75;;;1.40;;
21959;SDS011;11144;43.030;25.108;2023-08-31T20:16:34;7.35;;;1.65;;
21959;SDS011;11144;43.030;25.108;2023-08-31T20:18:08;4.35;;;1.20;;
21959;SDS011;11144;43.030;25.108;2023-08-31T20:19:40;3.42;;;1.77;;
21959;SDS011;11144;43.030;25.108;2023-08-31T20:21:15;2.55;;;1.25;;
21959;SDS011;11144;43.030;25.108;2023-08-31T20:22:48;3.85;;;1.50;;
21959;SDS011;11144;43.030;25.108;2023-08-31T20:24:22;4.03;;;1.35;;
21959;SDS011;11144;43.030;25.108;2023-08-31T20:25:54;4.00;;;1.65;;
21959;SDS011;11144;43.030;25.108;2023-08-31T20:27:30;3.97;;;2.10;;
21959;SDS011;11144;43.030;25.108;2023-08-31T20:29:03;1.70;;;1.30;;
21959;SDS011;11144;43.030;25.108;2023-08-31T20:30:36;3.05;;;1.27;;
21959;SDS011;11144;43.030;25.108;2023-08-31T20:32:10;4.93;;;1.50;;
21959;SDS011;11144;43.030;25.108;2023-08-31T20:33:42;4.47;;;1.40;;
21959;SDS011;11144;43.030;25.108;2023-08-31T20:35:16;2.20;;;1.38;;
21959;SDS011;11144;43.030;25.108;2023-08-31T20:36:48;3.67;;;1.30;;
21959;SDS011;11144;43.030;25.108;2023-08-31T20:38:24;2.17;;;1.38;;
21959;SDS011;11144;43.030;25.108;2023-08-31T20:39:57;6.28;;;1.77;;
21959;SDS011;11144;43.030;25.108;2023-08-31T20:41:30;2.90;;;1.38;;
21959;SDS011;11144;43.030;25.108;2023-08-31T20:43:06;2.33;;;1.25;;
21959;SDS011;11144;43.030;25.108;2023-08-31T20:44:40;1.60;;;1.10;;
21959;SDS011;11144;43.030;25.108;2023-08-31T20:46:12;2.08;;;1.15;;
21959;SDS011;11144;43.030;25.108;2023-08-31T20:47:45;3.08;;;1.55;;
21959;SDS011;11144;43.030;25.108;2023-08-31T20:49:17;2.05;;;1.35;;
21959;SDS011;11144;43.030;25.108;2023-08-31T20:50:59;5.05;;;1.30;;
21959;SDS011;11144;43.030;25.108;2023-08-31T20:52:32;2.20;;;1.42;;
21959;SDS011;11144;43.030;25.108;2023-08-31T20:54:05;2.63;;;1.30;;
21959;SDS011;11144;43.030;25.108;2023-08-31T20:55:38;3.95;;;1.30;;
21959;SDS011;11144;43.030;25.108;2023-08-31T20:57:12;7.53;;;1.55;;
21959;SDS011;11144;43.030;25.108;2023-08-31T20:58:46;3.55;;;1.48;;
21959;SDS011;11144;43.030;25.108;2023-08-31T21:00:19;3.45;;;1.42;;
21959;SDS011;11144;43.030;25.108;2023-08-31T21:01:52;4.05;;;1.88;;
21959;SDS011;11144;43.030;25.108;2023-08-31T21:03:25;2.65;;;1.50;;
21959;SDS011;11144;43.030;25.108;2023-08-31T21:04:57;2.38;;;1.75;;
21959;SDS011;11144;43.030;25.108;2023-08-31T21:06:31;3.70;;;1.60;;
21959;SDS011;11144;43.030;25.108;2023-08-31T21:08:05;3.50;;;1.85;;
21959;SDS011;11144;43.030;25.108;2023-08-31T21:09:38;2.97;;;1.60;;
21959;SDS011;11144;43.030;25.108;2023-08-31T21:11:12;3.58;;;1.52;;
21959;SDS011;11144;43.030;25.108;2023-08-31T21:12:44;2.53;;;1.55;;
21959;SDS011;11144;43.030;25.108;2023-08-31T21:14:18;2.40;;;1.40;;
21959;SDS011;11144;43.030;25.108;2023-08-31T21:15:53;5.07;;;1.42;;
21959;SDS011;11144;43.030;25.108;2023-08-31T21:17:26;3.28;;;1.60;;
21959;SDS011;11144;43.030;25.108;2023-08-31T21:18:59;2.78;;;1.55;;
21959;SDS011;11144;43.030;25.108;2023-08-31T21:20:36;3.65;;;1.40;;
21959;SDS011;11144;43.030;25.108;2023-08-31T21:22:09;6.00;;;1.80;;
21959;SDS011;11144;43.030;25.108;2023-08-31T21:23:42;4.18;;;1.50;;
21959;SDS011;11144;43.030;25.108;2023-08-31T21:25:14;3.80;;;1.90;;
21959;SDS011;11144;43.030;25.108;2023-08-31T21:26:48;3.03;;;1.90;;
21959;SDS011;11144;43.030;25.108;2023-08-31T21:28:20;2.40;;;1.38;;
21959;SDS011;11144;43.030;25.108;2023-08-31T21:29:55;3.35;;;1.83;;
21959;SDS011;11144;43.030;25.108;2023-08-31T21:31:27;2.67;;;1.42;;
21959;SDS011;11144;43.030;25.108;2023-08-31T21:33:02;2.47;;;1.15;;
21959;SDS011;11144;43.030;25.108;2023-08-31T21:34:35;3.60;;;1.77;;
21959;SDS011;11144;43.030;25.108;2023-08-31T21:36:08;2.28;;;1.38;;
21959;SDS011;11144;43.030;25.108;2023-08-31T21:37:40;5.88;;;1.50;;
21959;SDS011;11144;43.030;25.108;2023-08-31T21:39:14;3.17;;;1.50;;
21959;SDS011;11144;43.030;25.108;2023-08-31T21:40:47;3.55;;;1.45;;
21959;SDS011;11144;43.030;25.108;2023-08-31T21:42:19;2.55;;;1.48;;
21959;SDS011;11144;43.030;25.108;2023-08-31T21:43:53;2.58;;;1.50;;
21959;SDS011;11144;43.030;25.108;2023-08-31T21:45:28;5.95;;;1.60;;
21959;SDS011;11144;43.030;25.108;2023-08-31T21:47:00;3.25;;;1.60;;
21959;SDS011;11144;43.030;25.108;2023-08-31T21:48:34;2.88;;;1.33;;
21959;SDS011;11144;43.030;25.108;2023-08-31T21:50:06;4.95;;;1.73;;
21959;SDS011;11144;43.030;25.108;2023-08-31T21:51:40;2.10;;;1.45;;
21959;SDS011;11144;43.030;25.108;2023-08-31T21:53:14;2.13;;;1.00;;
21959;SDS011;11144;43.030;25.108;2023-08-31T21:54:46;1.35;;;0.68;;
21959;SDS011;11144;43.030;25.108;2023-08-31T21:56:19;1.75;;;0.77;;
21959;SDS011;11144;43.030;25.108;2023-08-31T21:57:51;0.95;;;0.60;;
21959;SDS011;11144;43.030;25.108;2023-08-31T21:59:25;1.60;;;0.85;;
21959;SDS011;11144;43.030;25.108;2023-08-31T22:00:59;1.08;;;0.60;;
21959;SDS011;11144;43.030;25.108;2023-08-31T22:02:33;1.02;;;0.63;;
21959;SDS011;11144;43.030;25.108;2023-08-31T22:04:06;2.10;;;0.57;;
21959;SDS011;11144;43.030;25.108;2023-08-31T22:05:39;0.95;;;0.50;;
21959;SDS011;11144;43.030;25.108;2023-08-31T22:07:13;1.20;;;0.60;;
21959;SDS011;11144;43.030;25.108;2023-08-31T22:08:47;0.95;;;0.70;;
21959;SDS011;11144;43.030;25.108;2023-08-31T22:10:19;0.98;;;0.65;;
21959;SDS011;11144;43.030;25.108;2023-08-31T22:11:54;1.13;;;0.50;;
21959;SDS011;11144;43.030;25.108;2023-08-31T22:13:26;0.95;;;0.45;;
21959;SDS011;11144;43.030;25.108;2023-08-31T22:15:00;1.00;;;0.60;;
21959;SDS011;11144;43.030;25.108;2023-08-31T22:16:36;0.95;;;0.50;;
21959;SDS011;11144;43.030;25.108;2023-08-31T22:18:09;1.73;;;0.73;;
21959;SDS011;11144;43.030;25.108;2023-08-31T22:19:43;1.95;;;0.60;;
21959;SDS011;11144;43.030;25.108;2023-08-31T22:21:17;1.17;;;0.60;;
21959;SDS011;11144;43.030;25.108;2023-08-31T22:22:50;1.23;;;0.60;;
21959;SDS011;11144;43.030;25.108;2023-08-31T22:24:26;1.58;;;0.80;;
21959;SDS011;11144;43.030;25.108;2023-08-31T22:26:00;0.80;;;0.43;;
21959;SDS011;11144;43.030;25.108;2023-08-31T22:27:33;1.75;;;0.60;;
21959;SDS011;11144;43.030;25.108;2023-08-31T22:29:07;1.52;;;0.60;;
21959;SDS011;11144;43.030;25.108;2023-08-31T22:30:39;1.70;;;0.68;;
21959;SDS011;11144;43.030;25.108;2023-08-31T22:32:15;1.40;;;0.47;;
21959;SDS011;11144;43.030;25.108;2023-08-31T22:33:48;1.48;;;0.40;;
21959;SDS011;11144;43.030;25.108;2023-08-31T22:35:21;0.93;;;0.40;;
21959;SDS011;11144;43.030;25.108;2023-08-31T22:36:54;1.52;;;0.52;;
21959;SDS011;11144;43.030;25.108;2023-08-31T22:38:28;0.80;;;0.45;;
21959;SDS011;11144;43.030;25.108;2023-08-31T22:40:00;1.10;;;0.50;;
21959;SDS011;11144;43.030;25.108;2023-08-31T22:41:34;1.00;;;0.60;;
21959;SDS011;11144;43.030;25.108;2023-08-31T22:43:08;1.50;;;0.52;;
21959;SDS011;11144;43.030;25.108;2023-08-31T22:44:40;1.10;;;0.52;;
21959;SDS011;11144;43.030;25.108;2023-08-31T22:46:13;2.22;;;0.60;;
21959;SDS011;11144;43.030;25.108;2023-08-31T22:47:47;2.15;;;0.80;;
21959;SDS011;11144;43.030;25.108;2023-08-31T22:49:21;1.05;;;0.50;;
21959;SDS011;11144;43.030;25.108;2023-08-31T22:50:59;1.00;;;0.50;;
21959;SDS011;11144;43.030;25.108;2023-08-31T22:52:33;1.00;;;0.47;;
21959;SDS011;11144;43.030;25.108;2023-08-31T22:54:05;1.35;;;0.70;;
21959;SDS011;11144;43.030;25.108;2023-08-31T22:55:39;2.13;;;0.77;;
21959;SDS011;11144;43.030;25.108;2023-08-31T22:57:11;2.38;;;0.63;;
21959;SDS011;11144;43.030;25.108;2023-08-31T22:58:44;1.02;;;0.50;;
21959;SDS011;11144;43.030;25.108;2023-08-31T23:00:16;1.67;;;0.85;;
21959;SDS011;11144;43.030;25.108;2023-08-31T23:01:50;2.03;;;0.77;;
21959;SDS011;11144;43.030;25.108;2023-08-31T23:03:24;0.60;;;0.50;;
21959;SDS011;11144;43.030;25.108;2023-08-31T23:04:57;2.00;;;1.08;;
21959;SDS011;11144;43.030;25.108;2023-08-31T23:06:30;1.05;;;0.47;;
21959;SDS011;11144;43.030;25.108;2023-08-31T23:08:05;1.45;;;0.85;;
21959;SDS011;11144;43.030;25.108;2023-08-31T23:09:37;0.95;;;0.65;;
21959;SDS011;11144;43.030;25.108;2023-08-31T23:11:11;1.55;;;1.00;;
21959;SDS011;11144;43.030;25.108;2023-08-31T23:12:43;0.73;;;0.40;;
21959;SDS011;11144;43.030;25.108;2023-08-31T23:14:17;2.75;;;0.63;;
21959;SDS011;11144;43.030;25.108;2023-08-31T23:15:50;1.35;;;0.68;;
21959;SDS011;11144;43.030;25.108;2023-08-31T23:17:23;1.33;;;0.70;;
21959;SDS011;11144;43.030;25.108;2023-08-31T23:18:58;1.60;;;0.80;;
21959;SDS011;11144;43.030;25.108;2023-08-31T23:20:30;1.48;;;0.52;;
21959;SDS011;11144;43.030;25.108;2023-08-31T23:22:04;0.95;;;0.50;;
21959;SDS011;11144;43.030;25.108;2023-08-31T23:23:36;0.73;;;0.40;;
21959;SDS011;11144;43.030;25.108;2023-08-31T23:25:09;0.82;;;0.40;;
21959;SDS011;11144;43.030;25.108;2023-08-31T23:26:42;3.83;;;0.45;;
21959;SDS011;11144;43.030;25.108;2023-08-31T23:28:15;0.95;;;0.47;;
21959;SDS011;11144;43.030;25.108;2023-08-31T23:29:48;0.90;;;0.57;;
21959;SDS011;11144;43.030;25.108;2023-08-31T23:31:21;1.08;;;0.52;;
21959;SDS011;11144;43.030;25.108;2023-08-31T23:32:54;0.70;;;0.38;;
21959;SDS011;11144;43.030;25.108;2023-08-31T23:34:28;2.60;;;0.60;;
21959;SDS011;11144;43.030;25.108;2023-08-31T23:36:01;1.45;;;0.52;;
21959;SDS011;11144;43.030;25.108;2023-08-31T23:37:34;1.33;;;0.43;;
21959;SDS011;11144;43.030;25.108;2023-08-31T23:39:07;1.05;;;0.50;;
21959;SDS011;11144;43.030;25.108;2023-08-31T23:40:40;1.83;;;0.70;;
21959;SDS011;11144;43.030;25.108;2023-08-31T23:42:13;1.25;;;0.60;;
21959;SDS011;11144;43.030;25.108;2023-08-31T23:43:47;1.35;;;0.50;;
21959;SDS011;11144;43.030;25.108;2023-08-31T23:45:20;1.38;;;0.60;;
21959;SDS011;11144;43.030;25.108;2023-08-31T23:46:53;0.70;;;0.45;;
21959;SDS011;11144;43.030;25.108;2023-08-31T23:48:25;1.23;;;0.50;;
21959;SDS011;11144;43.030;25.108;2023-08-31T23:50:00;0.70;;;0.45;;
21959;SDS011;11144;43.030;25.108;2023-08-31T23:51:32;1.85;;;0.65;;
21959;SDS011;11144;43.030;25.108;2023-08-31T23:53:06;1.02;;;0.40;;
21959;SDS011;11144;43.030;25.108;2023-08-31T23:54:38;1.42;;;0.65;;
21959;SDS011;11144;43.030;25.108;2023-08-31T23:56:12;0.90;;;0.40;;
21959;SDS011;11144;43.030;25.108;2023-08-31T23:57:45;1.52;;;0.80;;
21959;SDS011;11144;43.030;25.108;2023-08-31T23:59:18;1.52;;;0.60;;
